createdAt,value
2018-05-24T00:02:01.991Z,99683.49
2018-05-24T00:04:29.486Z,99686.33
2018-05-24T00:06:56.959Z,99683.11
2018-05-24T00:09:24.458Z,99688.09
2018-05-24T00:11:51.909Z,99689.42
2018-05-24T00:14:19.416Z,99687.38
2018-05-24T00:16:46.896Z,99690.52
2018-05-24T00:19:14.378Z,99695.16
2018-05-24T00:21:41.871Z,99697.14
2018-05-24T00:24:09.339Z,99692.85
2018-05-24T00:26:36.816Z,99691.04
2018-05-24T00:29:04.320Z,99690.97
2018-05-24T00:31:31.794Z,99695.52
2018-05-24T00:33:59.304Z,99700.34
2018-05-24T00:36:26.854Z,99700.66
2018-05-24T00:38:54.317Z,99704.28
2018-05-24T00:41:21.779Z,99702.63
2018-05-24T00:43:49.252Z,99699.44
2018-05-24T00:46:16.761Z,99705.52
2018-05-24T00:48:44.226Z,99700.97
2018-05-24T00:51:11.709Z,99707.94
2018-05-24T00:53:39.187Z,99709.77
2018-05-24T00:56:06.673Z,99701.73
2018-05-24T00:58:34.210Z,99713.94
2018-05-24T01:01:02.562Z,99714.66
2018-05-24T01:03:30.022Z,99713.78
2018-05-24T01:05:57.522Z,99711.71
2018-05-24T01:08:24.986Z,99711.91
2018-05-24T01:10:52.450Z,99711.49
2018-05-24T01:13:19.941Z,99717.84
2018-05-24T01:15:47.489Z,99713.81
2018-05-24T01:18:14.947Z,99712.20
2018-05-24T01:20:42.424Z,99710.02
2018-05-24T01:23:09.926Z,99710.02
2018-05-24T01:25:37.414Z,99710.24
2018-05-24T01:28:04.940Z,99711.62
2018-05-24T01:30:32.434Z,99704.09
2018-05-24T01:32:59.902Z,99718.05
2018-05-24T01:35:27.379Z,99717.31
2018-05-24T01:37:54.878Z,99723.00
2018-05-24T01:40:22.428Z,99724.87
2018-05-24T01:42:49.920Z,99724.25
2018-05-24T01:45:17.407Z,99738.09
2018-05-24T01:47:44.878Z,99731.69
2018-05-24T01:50:12.431Z,99730.44
2018-05-24T01:52:39.892Z,99730.18
2018-05-24T01:55:07.370Z,99732.30
2018-05-24T01:57:34.883Z,99729.78
2018-05-24T02:00:02.369Z,99736.98
2018-05-24T02:02:29.843Z,99730.18
2018-05-24T02:04:57.384Z,99730.02
2018-05-24T02:07:24.902Z,99738.56
2018-05-24T02:09:52.854Z,99733.91
2018-05-24T02:12:20.354Z,99734.45
2018-05-24T02:14:47.845Z,99737.35
2018-05-24T02:17:15.312Z,99732.10
2018-05-24T02:19:42.806Z,99733.63
2018-05-24T02:22:11.038Z,99728.06
2018-05-24T02:24:38.524Z,99726.34
2018-05-24T02:27:07.557Z,99733.56
2018-05-24T02:29:35.056Z,99722.75
2018-05-24T02:32:02.610Z,99722.30
2018-05-24T02:34:30.140Z,99723.12
2018-05-24T02:36:58.208Z,99721.98
2018-05-24T02:39:25.714Z,99722.09
2018-05-24T02:41:53.246Z,99718.47
2018-05-24T02:44:20.722Z,99724.92
2018-05-24T02:46:48.238Z,99727.09
2018-05-24T02:49:15.806Z,99729.31
2018-05-24T02:51:43.288Z,99732.75
2018-05-24T02:54:10.793Z,99727.91
2018-05-24T02:56:38.290Z,99728.80
2018-05-24T02:59:05.766Z,99724.47
2018-05-24T03:01:33.359Z,99724.27
2018-05-24T03:04:00.815Z,99718.70
2018-05-24T03:06:28.320Z,99721.36
2018-05-24T03:08:55.776Z,99722.89
2018-05-24T03:11:23.287Z,99726.95
2018-05-24T03:13:50.791Z,99718.39
2018-05-24T03:16:18.275Z,99721.94
2018-05-24T03:18:45.787Z,99725.75
2018-05-24T03:21:13.289Z,99731.30
2018-05-24T03:23:40.805Z,99720.77
2018-05-24T03:26:08.292Z,99726.80
2018-05-24T03:28:35.800Z,99728.39
2018-05-24T03:31:03.323Z,99735.16
2018-05-24T03:33:30.840Z,99738.54
2018-05-24T03:35:58.304Z,99742.18
2018-05-24T03:38:25.806Z,99741.94
2018-05-24T03:40:53.313Z,99746.11
2018-05-24T03:43:20.811Z,99747.03
2018-05-24T03:45:48.272Z,99759.34
2018-05-24T03:48:15.769Z,99760.42
2018-05-24T03:50:43.251Z,99758.18
2018-05-24T03:53:10.729Z,99751.47
2018-05-24T03:55:38.207Z,99755.69
2018-05-24T03:58:05.732Z,99754.49
2018-05-24T04:00:44.815Z,99753.77
2018-05-24T04:03:24.118Z,99756.08
2018-05-24T04:05:51.595Z,99756.05
2018-05-24T04:08:19.059Z,99761.52
2018-05-24T04:10:46.547Z,99761.38
2018-05-24T04:13:14.040Z,99759.34
2018-05-24T04:15:41.520Z,99763.30
2018-05-24T04:18:09.006Z,99763.95
2018-05-24T04:20:36.531Z,99764.37
2018-05-24T04:23:04.247Z,99760.72
2018-05-24T04:25:31.767Z,99755.45
2018-05-24T04:27:59.345Z,99756.61
2018-05-24T04:30:26.846Z,99758.76
2018-05-24T04:32:54.413Z,99759.19
2018-05-24T04:35:21.890Z,99755.41
2018-05-24T04:37:49.363Z,99754.89
2018-05-24T04:40:16.861Z,99751.91
2018-05-24T04:42:44.356Z,99753.40
2018-05-24T04:45:11.829Z,99754.22
2018-05-24T04:47:39.311Z,99749.99
2018-05-24T04:50:06.860Z,99749.45
2018-05-24T04:52:34.410Z,99752.86
2018-05-24T04:55:01.902Z,99747.88
2018-05-24T04:57:29.423Z,99747.44
2018-05-24T04:59:56.882Z,99743.77
2018-05-24T05:02:24.359Z,99752.42
2018-05-24T05:04:51.941Z,99745.38
2018-05-24T05:07:19.445Z,99747.31
2018-05-24T05:09:46.979Z,99751.92
2018-05-24T05:12:14.491Z,99755.58
2018-05-24T05:14:41.968Z,99762.28
2018-05-24T05:17:09.474Z,99761.92
2018-05-24T05:19:36.981Z,99767.99
2018-05-24T05:22:04.447Z,99757.73
2018-05-24T05:24:31.911Z,99755.09
2018-05-24T05:26:59.409Z,99749.48
2018-05-24T05:29:26.873Z,99753.03
2018-05-24T05:31:54.345Z,99758.02
2018-05-24T05:34:21.822Z,99767.13
2018-05-24T05:36:49.283Z,99774.81
2018-05-24T05:39:16.765Z,99765.81
2018-05-24T05:41:44.270Z,99767.96
2018-05-24T05:44:11.724Z,99768.40
2018-05-24T05:46:39.185Z,99774.90
2018-05-24T05:49:06.662Z,99780.65
2018-05-24T05:51:34.109Z,99778.15
2018-05-24T05:54:01.573Z,99781.58
2018-05-24T05:56:29.050Z,99782.21
2018-05-24T05:58:56.538Z,99783.37
2018-05-24T06:01:24.015Z,99781.67
2018-05-24T06:03:51.517Z,99781.45
2018-05-24T06:06:18.979Z,99778.45
2018-05-24T06:08:46.448Z,99774.48
2018-05-24T06:11:13.931Z,99780.70
2018-05-24T06:13:41.392Z,99786.72
2018-05-24T06:16:08.847Z,99786.80
2018-05-24T06:18:36.341Z,99785.13
2018-05-24T06:21:03.806Z,99780.53
2018-05-24T06:23:31.266Z,99773.78
2018-05-24T06:25:58.750Z,99784.05
2018-05-24T06:28:26.285Z,99780.23
2018-05-24T06:30:53.691Z,99786.22
2018-05-24T06:33:21.164Z,99784.67
2018-05-24T06:35:48.614Z,99788.77
2018-05-24T06:38:16.072Z,99789.64
2018-05-24T06:40:43.557Z,99797.24
2018-05-24T06:43:11.039Z,99802.35
2018-05-24T06:45:38.537Z,99801.30
2018-05-24T06:48:06.025Z,99796.60
2018-05-24T06:50:33.502Z,99799.36
2018-05-24T06:53:00.984Z,99802.67
2018-05-24T06:55:28.447Z,99802.63
2018-05-24T06:57:55.936Z,99801.00
2018-05-24T07:00:23.446Z,99804.33
2018-05-24T07:02:50.908Z,99805.66
2018-05-24T07:05:18.378Z,99809.04
2018-05-24T07:07:45.862Z,99806.22
2018-05-24T07:10:13.350Z,99804.65
2018-05-24T07:12:40.821Z,99803.11
2018-05-24T07:15:08.329Z,99796.06
2018-05-24T07:17:35.810Z,99798.50
2018-05-24T07:20:03.300Z,99806.20
2018-05-24T07:22:30.774Z,99807.70
2018-05-24T07:24:58.320Z,99801.16
2018-05-24T07:27:25.805Z,99798.44
2018-05-24T07:29:53.313Z,99796.77
2018-05-24T07:32:20.767Z,99801.62
2018-05-24T07:34:48.231Z,99808.25
2018-05-24T07:37:15.738Z,99809.16
2018-05-24T07:39:43.286Z,99808.75
2018-05-24T07:42:10.704Z,99812.09
2018-05-24T07:44:38.207Z,99808.91
2018-05-24T07:47:05.675Z,99809.95
2018-05-24T07:49:33.202Z,99810.59
2018-05-24T07:52:00.743Z,99805.43
2018-05-24T07:54:28.226Z,99806.86
2018-05-24T07:56:55.680Z,99804.50
2018-05-24T07:59:23.210Z,99803.43
2018-05-24T08:01:50.674Z,99804.16
2018-05-24T08:04:18.144Z,99805.70
2018-05-24T08:06:45.634Z,99800.63
2018-05-24T08:09:13.119Z,99801.61
2018-05-24T08:11:40.604Z,99796.03
2018-05-24T08:14:08.077Z,99795.48
2018-05-24T08:16:35.590Z,99800.03
2018-05-24T08:19:03.078Z,99795.73
2018-05-24T08:21:30.559Z,99791.36
2018-05-24T08:23:58.079Z,99789.55
2018-05-24T08:26:25.564Z,99786.42
2018-05-24T08:28:53.031Z,99784.94
2018-05-24T08:31:20.487Z,99792.34
2018-05-24T08:33:47.957Z,99783.30
2018-05-24T08:36:15.431Z,99785.84
2018-05-24T08:38:42.905Z,99790.98
2018-05-24T08:41:10.379Z,99789.77
2018-05-24T08:43:37.852Z,99789.82
2018-05-24T08:46:05.323Z,99789.64
2018-05-24T08:48:32.810Z,99788.73
2018-05-24T08:51:00.282Z,99797.22
2018-05-24T08:53:27.808Z,99782.05
2018-05-24T08:55:55.250Z,99784.55
2018-05-24T08:58:22.714Z,99787.00
2018-05-24T09:00:50.176Z,99781.75
2018-05-24T09:03:17.677Z,99783.59
2018-05-24T09:05:45.159Z,99779.02
2018-05-24T09:08:12.627Z,99786.85
2018-05-24T09:10:40.113Z,99788.87
2018-05-24T09:13:07.591Z,99788.98
2018-05-24T09:15:35.054Z,99789.20
2018-05-24T09:18:02.546Z,99786.98
2018-05-24T09:20:30.081Z,99784.83
2018-05-24T09:22:57.542Z,99786.59
2018-05-24T09:25:25.102Z,99789.72
2018-05-24T09:27:52.704Z,99786.92
2018-05-24T09:30:20.189Z,99787.92
2018-05-24T09:32:47.738Z,99786.70
2018-05-24T09:35:15.207Z,99786.44
2018-05-24T09:37:43.400Z,99782.58
2018-05-24T09:40:10.905Z,99783.30
2018-05-24T09:42:38.390Z,99778.98
2018-05-24T09:45:05.919Z,99773.09
2018-05-24T09:47:33.457Z,99773.31
2018-05-24T09:50:02.460Z,99772.11
2018-05-24T09:52:29.972Z,99767.81
2018-05-24T09:54:57.483Z,99760.57
2018-05-24T09:57:24.947Z,99762.16
2018-05-24T09:59:52.426Z,99761.23
2018-05-24T10:02:19.938Z,99755.94
2018-05-24T10:04:47.402Z,99760.60
2018-05-24T10:07:14.901Z,99750.88
2018-05-24T10:09:42.374Z,99751.31
2018-05-24T10:12:09.947Z,99742.87
2018-05-24T10:14:37.463Z,99744.38
2018-05-24T10:17:04.970Z,99739.89
2018-05-24T10:19:32.462Z,99740.81
2018-05-24T10:22:00.456Z,99739.81
2018-05-24T10:24:27.952Z,99737.13
2018-05-24T10:26:55.420Z,99732.18
2018-05-24T10:29:22.919Z,99732.04
2018-05-24T10:31:50.374Z,99721.06
2018-05-24T10:34:17.851Z,99718.42
2018-05-24T10:36:45.313Z,99720.41
2018-05-24T10:39:12.806Z,99709.13
2018-05-24T10:41:40.285Z,99709.68
2018-05-24T10:44:07.754Z,99704.62
2018-05-24T10:46:35.225Z,99707.47
2018-05-24T10:49:02.696Z,99709.88
2018-05-24T10:51:30.173Z,99697.63
2018-05-24T10:53:57.682Z,99691.11
2018-05-24T10:56:25.164Z,99687.49
2018-05-24T10:58:52.636Z,99687.35
2018-05-24T11:01:20.106Z,99678.64
2018-05-24T11:03:47.592Z,99682.28
2018-05-24T11:06:15.075Z,99674.20
2018-05-24T11:08:42.555Z,99671.05
2018-05-24T11:11:10.015Z,99669.21
2018-05-24T11:13:37.487Z,99667.02
2018-05-24T11:16:05.013Z,99665.31
2018-05-24T11:18:32.502Z,99663.08
2018-05-24T11:21:00.026Z,99657.42
2018-05-24T11:23:27.491Z,99655.62
2018-05-24T11:25:54.966Z,99655.63
2018-05-24T11:28:22.504Z,99651.56
2018-05-24T11:30:50.025Z,99646.26
2018-05-24T11:33:17.506Z,99653.23
2018-05-24T11:35:45.065Z,99652.36
2018-05-24T11:38:12.571Z,99657.66
2018-05-24T11:40:40.032Z,99655.10
2018-05-24T11:43:07.680Z,99644.55
2018-05-24T11:45:35.086Z,99643.40
2018-05-24T11:48:02.545Z,99643.53
2018-05-24T11:50:30.032Z,99649.66
2018-05-24T11:52:57.526Z,99645.31
2018-05-24T11:55:24.986Z,99633.80
2018-05-24T11:57:52.472Z,99632.48
2018-05-24T12:00:19.944Z,99626.66
2018-05-24T12:02:47.407Z,99627.67
2018-05-24T12:05:14.884Z,99630.83
2018-05-24T12:07:42.351Z,99624.64
2018-05-24T12:10:09.865Z,99622.09
2018-05-24T12:12:37.329Z,99623.25
2018-05-24T12:15:04.813Z,99629.95
2018-05-24T12:17:32.279Z,99619.52
2018-05-24T12:19:59.810Z,99601.67
2018-05-24T12:22:27.323Z,99605.41
2018-05-24T12:24:54.801Z,99606.09
2018-05-24T12:27:22.278Z,99609.03
2018-05-24T12:29:49.750Z,99613.95
2018-05-24T12:32:17.224Z,99613.05
2018-05-24T12:34:44.755Z,99619.91
2018-05-24T12:37:12.255Z,99623.61
2018-05-24T12:39:39.703Z,99629.00
2018-05-24T12:42:07.183Z,99624.20
2018-05-24T12:44:34.686Z,99621.70
2018-05-24T12:47:02.157Z,99614.09
2018-05-24T12:49:29.641Z,99612.30
2018-05-24T12:51:57.105Z,99609.67
2018-05-24T12:54:24.560Z,99610.87
2018-05-24T12:56:52.051Z,99603.45
2018-05-24T12:59:19.525Z,99599.94
2018-05-24T13:01:47.001Z,99592.92
2018-05-24T13:04:14.532Z,99592.22
2018-05-24T13:06:41.940Z,99584.23
2018-05-24T13:09:09.411Z,99575.01
2018-05-24T13:11:36.882Z,99574.33
2018-05-24T13:14:04.362Z,99571.04
2018-05-24T13:16:31.850Z,99577.59
2018-05-24T13:18:59.322Z,99574.59
2018-05-24T13:21:26.834Z,99568.41
2018-05-24T13:23:54.295Z,99575.47
2018-05-24T13:26:21.786Z,99588.61
2018-05-24T13:28:49.246Z,99599.66
2018-05-24T13:31:16.706Z,99618.20
2018-05-24T13:33:44.191Z,99626.67
2018-05-24T13:36:11.681Z,99630.91
2018-05-24T13:38:39.155Z,99614.22
2018-05-24T13:41:06.669Z,99611.69
2018-05-24T13:43:34.148Z,99609.09
2018-05-24T13:46:01.643Z,99614.72
2018-05-24T13:48:29.133Z,99631.83
2018-05-24T13:50:56.573Z,99628.89
2018-05-24T13:53:24.050Z,99617.98
2018-05-24T13:55:51.539Z,99615.05
2018-05-24T13:58:18.990Z,99619.80
2018-05-24T14:00:46.462Z,99624.53
2018-05-24T14:03:13.943Z,99622.21
2018-05-24T14:05:41.428Z,99613.85
2018-05-24T14:08:08.930Z,99601.34
2018-05-24T14:10:36.450Z,99613.35
2018-05-24T14:13:03.910Z,99615.27
2018-05-24T14:15:31.357Z,99617.75
2018-05-24T14:17:58.827Z,99608.09
2018-05-24T14:20:26.291Z,99608.12
2018-05-24T14:22:53.743Z,99589.55
2018-05-24T14:25:21.769Z,99586.55
2018-05-24T14:27:49.257Z,99586.44
2018-05-24T14:30:17.572Z,99589.58
2018-05-24T14:32:45.057Z,99584.98
2018-05-24T14:35:12.517Z,99592.30
2018-05-24T14:37:39.974Z,99592.35
2018-05-24T14:40:07.483Z,99595.61
2018-05-24T14:42:34.992Z,99593.34
2018-05-24T14:45:03.164Z,99592.92
2018-05-24T14:47:30.677Z,99586.34
2018-05-24T14:49:58.187Z,99592.26
2018-05-24T14:52:25.641Z,99598.39
2018-05-24T14:54:53.101Z,99602.84
2018-05-24T14:57:20.596Z,99609.87
2018-05-24T14:59:48.041Z,99601.38
2018-05-24T15:02:15.568Z,99592.34
2018-05-24T15:04:43.030Z,99590.81
2018-05-24T15:07:10.489Z,99590.06
2018-05-24T15:09:37.979Z,99590.93
2018-05-24T15:12:05.519Z,99588.68
2018-05-24T15:14:32.999Z,99583.26
2018-05-24T15:17:00.474Z,99572.88
2018-05-24T15:19:28.023Z,99566.16
2018-05-24T15:21:55.502Z,99561.20
2018-05-24T15:24:22.978Z,99550.67
2018-05-24T15:26:50.438Z,99538.28
2018-05-24T15:29:17.914Z,99534.88
2018-05-24T15:31:45.414Z,99534.31
2018-05-24T15:34:12.888Z,99532.67
2018-05-24T15:36:40.375Z,99540.31
2018-05-24T15:39:07.857Z,99540.67
2018-05-24T15:44:09.564Z,99539.14
2018-05-24T15:46:37.042Z,99543.90
2018-05-24T15:49:04.666Z,99541.78
2018-05-24T15:51:32.210Z,99538.26
2018-05-24T15:53:59.708Z,99536.69
2018-05-24T15:56:28.029Z,99533.67
2018-05-24T15:58:55.510Z,99528.91
2018-05-24T16:01:22.965Z,99528.54
2018-05-24T16:03:54.551Z,99525.91
2018-05-24T16:06:22.267Z,99524.64
2018-05-24T16:08:51.282Z,99519.45
2018-05-24T16:11:19.683Z,99518.17
2018-05-24T16:13:47.359Z,99523.41
2018-05-24T16:16:14.954Z,99523.06
2018-05-24T16:18:42.426Z,99516.41
2018-05-24T16:21:11.056Z,99518.51
2018-05-24T16:23:38.557Z,99521.82
2018-05-24T16:26:06.045Z,99524.12
2018-05-24T16:28:33.546Z,99528.77
2018-05-24T16:31:01.027Z,99528.02
2018-05-24T16:33:28.515Z,99531.22
2018-05-24T16:35:56.046Z,99534.44
2018-05-24T16:38:23.646Z,99531.56
2018-05-24T16:40:51.155Z,99530.98
2018-05-24T16:43:18.624Z,99522.57
2018-05-24T16:45:46.106Z,99531.13
2018-05-24T16:48:13.574Z,99535.31
2018-05-24T16:50:41.076Z,99525.20
2018-05-24T16:53:08.649Z,99529.33
2018-05-24T16:55:36.188Z,99535.36
2018-05-24T16:58:03.718Z,99539.64
2018-05-24T17:00:31.303Z,99542.69
2018-05-24T17:02:58.773Z,99555.09
2018-05-24T17:05:26.268Z,99559.09
2018-05-24T17:07:53.744Z,99567.18
2018-05-24T17:10:22.027Z,99572.30
2018-05-24T17:12:58.102Z,99573.89
2018-05-24T17:15:25.627Z,99580.66
2018-05-24T17:18:03.107Z,99572.08
2018-05-24T17:36:43.368Z,99594.83
2018-05-24T17:39:10.862Z,99595.97
2018-05-24T17:41:38.391Z,99600.69
2018-05-24T17:44:05.884Z,99592.43
2018-05-24T17:46:33.367Z,99591.79
2018-05-24T17:49:00.920Z,99593.98
2018-05-24T17:51:28.428Z,99585.28
2018-05-24T17:53:56.130Z,99587.20
2018-05-24T17:56:23.700Z,99578.94
2018-05-24T17:59:08.148Z,99578.39
2018-05-24T18:01:36.508Z,99577.17
2018-05-24T18:04:05.629Z,99573.80
2018-05-24T18:06:33.129Z,99580.45
2018-05-24T18:09:00.670Z,99579.04
2018-05-24T18:11:28.194Z,99574.26
2018-05-24T18:13:55.691Z,99570.70
2018-05-24T18:16:23.261Z,99574.77
2018-05-24T18:18:50.749Z,99577.57
2018-05-24T18:21:18.251Z,99584.63
2018-05-24T18:23:46.047Z,99589.07
2018-05-24T18:26:13.662Z,99596.44
2018-05-24T18:28:41.151Z,99615.27
2018-05-24T18:31:08.695Z,99616.75
2018-05-24T18:33:36.190Z,99617.39
2018-05-24T18:36:04.123Z,99617.83
2018-05-24T18:38:31.629Z,99610.11
2018-05-24T18:41:04.297Z,99611.41
2018-05-24T18:46:04.944Z,99638.74
2018-05-24T18:48:32.442Z,99640.13
2018-05-24T18:51:00.081Z,99642.40
2018-05-24T18:53:27.630Z,99640.05
2018-05-24T18:55:56.522Z,99645.19
2018-05-24T18:58:24.139Z,99639.42
2018-05-24T19:00:51.697Z,99634.89
2018-05-24T19:03:19.218Z,99636.20
2018-05-24T19:05:46.736Z,99642.63
2018-05-24T19:08:14.313Z,99648.34
2018-05-24T19:10:41.880Z,99645.78
2018-05-24T19:13:09.463Z,99639.59
2018-05-24T19:15:37.020Z,99632.73
2018-05-24T19:18:04.575Z,99632.23
2018-05-24T19:20:32.153Z,99631.67
2018-05-24T19:22:59.657Z,99649.55
2018-05-24T19:25:27.317Z,99649.97
2018-05-24T19:27:54.952Z,99655.30
2018-05-24T19:30:23.439Z,99656.97
2018-05-24T19:32:51.198Z,99665.28
2018-05-24T19:35:24.638Z,99665.53
2018-05-24T19:37:52.236Z,99666.59
2018-05-24T19:40:20.613Z,99664.06
2018-05-24T19:42:48.190Z,99663.52
2018-05-24T19:45:15.734Z,99660.20
2018-05-24T19:47:43.358Z,99661.14
2018-05-24T19:50:10.916Z,99662.61
2018-05-24T19:52:39.938Z,99662.92
2018-05-24T19:55:09.229Z,99663.11
2018-05-24T19:57:36.874Z,99656.96
2018-05-24T20:00:04.540Z,99647.66
2018-05-24T20:02:38.193Z,99649.83
2018-05-24T20:05:19.540Z,99647.67
2018-05-24T20:07:48.052Z,99655.46
2018-05-24T20:10:17.142Z,99659.20
2018-05-24T20:12:44.691Z,99657.70
2018-05-24T20:15:12.221Z,99658.94
2018-05-24T20:17:40.001Z,99663.38
2018-05-24T20:20:07.550Z,99659.81
2018-05-24T20:22:35.216Z,99661.20
2018-05-24T20:25:02.778Z,99669.49
2018-05-24T20:27:30.258Z,99672.96
2018-05-24T20:29:57.833Z,99676.59
2018-05-24T20:32:25.323Z,99678.37
2018-05-24T20:34:52.840Z,99673.33
2018-05-24T20:37:20.727Z,99670.87
2018-05-24T20:39:48.250Z,99676.58
2018-05-24T20:42:15.728Z,99671.45
2018-05-24T20:44:43.217Z,99672.78
2018-05-24T20:47:11.274Z,99663.96
2018-05-24T20:49:38.766Z,99665.28
2018-05-24T20:52:06.321Z,99659.59
2018-05-24T20:54:34.202Z,99667.55
2018-05-24T20:57:01.715Z,99675.78
2018-05-24T20:59:29.211Z,99679.67
2018-05-24T21:01:56.830Z,99672.44
2018-05-24T21:04:24.401Z,99673.69
2018-05-24T21:06:56.909Z,99665.20
2018-05-24T21:09:24.581Z,99665.37
2018-05-24T21:11:53.586Z,99659.63
2018-05-24T21:14:21.115Z,99657.53
2018-05-24T21:16:49.045Z,99657.45
2018-05-24T21:19:16.550Z,99652.58
2018-05-24T21:21:44.110Z,99650.47
2018-05-24T21:24:11.613Z,99658.89
2018-05-24T21:26:40.048Z,99664.19
2018-05-24T21:29:08.100Z,99663.68
2018-05-24T21:31:35.619Z,99666.27
2018-05-24T21:34:03.098Z,99664.38
2018-05-24T21:36:30.760Z,99663.56
2018-05-24T21:38:58.338Z,99660.63
2018-05-24T21:41:25.823Z,99666.08
2018-05-24T21:43:53.306Z,99662.41
2018-05-24T21:46:21.324Z,99663.93
2018-05-24T21:48:48.939Z,99663.93
2018-05-24T21:51:16.552Z,99660.95
2018-05-24T21:53:44.275Z,99660.66
2018-05-24T21:56:12.407Z,99657.00
2018-05-24T21:58:39.894Z,99655.80
2018-05-24T22:01:07.569Z,99654.69
2018-05-24T22:03:35.085Z,99661.38
2018-05-24T22:06:02.873Z,99657.08
2018-05-24T22:08:30.630Z,99653.25
2018-05-24T22:20:38.188Z,99659.36
2018-05-24T22:23:05.717Z,99661.59
2018-05-24T22:25:33.238Z,99653.94
2018-05-24T22:28:00.767Z,99656.02
2018-05-24T22:30:28.258Z,99650.20
2018-05-24T22:32:55.749Z,99653.73
2018-05-24T22:35:23.264Z,99657.78
2018-05-24T22:37:50.767Z,99658.24
2018-05-24T22:40:18.312Z,99659.00
2018-05-24T22:42:45.942Z,99662.63
2018-05-24T22:45:13.401Z,99661.08
2018-05-24T22:47:40.902Z,99659.66
2018-05-24T22:50:10.644Z,99655.25
2018-05-24T22:52:38.317Z,99657.25
2018-05-24T22:55:06.063Z,99655.91
2018-05-24T22:57:33.608Z,99651.00
2018-05-24T23:00:01.087Z,99652.30
2018-05-24T23:02:28.545Z,99649.98
2018-05-24T23:04:56.032Z,99656.04
2018-05-24T23:07:23.533Z,99651.39
2018-05-24T23:09:51.019Z,99651.98
2018-05-24T23:12:18.519Z,99653.28
2018-05-24T23:14:45.982Z,99648.83
2018-05-24T23:17:13.578Z,99644.55
2018-05-24T23:19:41.069Z,99648.77
2018-05-24T23:22:08.642Z,99640.02
2018-05-24T23:24:36.097Z,99636.27
2018-05-24T23:27:03.767Z,99638.32
2018-05-24T23:29:31.974Z,99638.86
2018-05-24T23:31:59.538Z,99644.58
2018-05-24T23:34:27.064Z,99640.32
2018-05-24T23:36:54.545Z,99642.30
2018-05-24T23:39:22.055Z,99642.55
2018-05-24T23:41:49.643Z,99641.81
2018-05-24T23:44:17.132Z,99639.55
2018-05-24T23:46:44.934Z,99641.16
2018-05-24T23:49:12.449Z,99633.42
2018-05-24T23:51:39.950Z,99642.95
2018-05-24T23:54:07.654Z,99640.94
2018-05-24T23:56:36.278Z,99641.92
2018-05-24T23:59:03.809Z,99637.19
